sensor_id;sensor_type;location;lat;lon;timestamp;temperature;humidity
3566;DHT22;1797;51.844;7.684;2023-04-21T00:00:59;9.50;99.90
3566;DHT22;1797;51.844;7.684;2023-04-21T00:03:25;9.50;99.90
3566;DHT22;1797;51.844;7.684;2023-04-21T00:05:52;9.40;99.90
3566;DHT22;1797;51.844;7.684;2023-04-21T00:08:20;9.50;99.90
3566;DHT22;1797;51.844;7.684;2023-04-21T00:10:46;9.40;1.00
3566;DHT22;1797;51.844;7.684;2023-04-21T00:13:12;9.50;1.00
3566;DHT22;1797;51.844;7.684;2023-04-21T00:15:38;9.60;1.00
3566;DHT22;1797;51.844;7.684;2023-04-21T00:18:04;9.60;99.90
3566;DHT22;1797;51.844;7.684;2023-04-21T00:20:30;9.60;99.90
3566;DHT22;1797;51.844;7.684;2023-04-21T00:22:56;9.50;99.90
3566;DHT22;1797;51.844;7.684;2023-04-21T00:25:23;9.50;1.00
3566;DHT22;1797;51.844;7.684;2023-04-21T00:27:49;9.60;1.00
3566;DHT22;1797;51.844;7.684;2023-04-21T00:30:14;9.50;1.00
3566;DHT22;1797;51.844;7.684;2023-04-21T00:32:40;9.40;1.00
3566;DHT22;1797;51.844;7.684;2023-04-21T00:35:06;9.50;1.00
3566;DHT22;1797;51.844;7.684;2023-04-21T00:37:32;9.50;1.00
3566;DHT22;1797;51.844;7.684;2023-04-21T00:39:57;9.50;1.00
3566;DHT22;1797;51.844;7.684;2023-04-21T00:42:24;9.60;1.00
3566;DHT22;1797;51.844;7.684;2023-04-21T00:44:50;9.60;1.00
3566;DHT22;1797;51.844;7.684;2023-04-21T00:47:16;9.60;1.00
3566;DHT22;1797;51.844;7.684;2023-04-21T00:49:42;9.70;1.00
3566;DHT22;1797;51.844;7.684;2023-04-21T00:52:08;9.60;1.00
3566;DHT22;1797;51.844;7.684;2023-04-21T00:54:35;9.60;1.00
3566;DHT22;1797;51.844;7.684;2023-04-21T00:57:01;9.60;1.00
3566;DHT22;1797;51.844;7.684;2023-04-21T00:59:28;9.70;1.00
3566;DHT22;1797;51.844;7.684;2023-04-21T01:01:54;9.60;90.30
3566;DHT22;1797;51.844;7.684;2023-04-21T01:04:20;9.60;99.90
3566;DHT22;1797;51.844;7.684;2023-04-21T01:06:46;9.60;96.70
3566;DHT22;1797;51.844;7.684;2023-04-21T01:09:12;9.50;16.30
3566;DHT22;1797;51.844;7.684;2023-04-21T01:11:37;9.60;99.90
3566;DHT22;1797;51.844;7.684;2023-04-21T01:14:04;9.60;99.90
3566;DHT22;1797;51.844;7.684;2023-04-21T01:16:30;9.60;99.90
3566;DHT22;1797;51.844;7.684;2023-04-21T01:18:58;9.60;35.30
3566;DHT22;1797;51.844;7.684;2023-04-21T01:21:24;9.60;99.90
3566;DHT22;1797;51.844;7.684;2023-04-21T01:23:52;9.70;22.10
3566;DHT22;1797;51.844;7.684;2023-04-21T01:26:21;9.70;1.00
3566;DHT22;1797;51.844;7.684;2023-04-21T01:28:47;9.70;88.40
3566;DHT22;1797;51.844;7.684;2023-04-21T01:31:14;9.70;33.50
3566;DHT22;1797;51.844;7.684;2023-04-21T01:33:40;9.70;1.00
3566;DHT22;1797;51.844;7.684;2023-04-21T01:36:06;9.70;1.00
3566;DHT22;1797;51.844;7.684;2023-04-21T01:38:32;9.70;1.00
3566;DHT22;1797;51.844;7.684;2023-04-21T01:40:58;9.70;1.00
3566;DHT22;1797;51.844;7.684;2023-04-21T01:43:24;9.80;1.00
3566;DHT22;1797;51.844;7.684;2023-04-21T01:45:51;9.90;1.00
3566;DHT22;1797;51.844;7.684;2023-04-21T01:48:16;9.90;1.00
3566;DHT22;1797;51.844;7.684;2023-04-21T01:50:42;9.90;1.00
3566;DHT22;1797;51.844;7.684;2023-04-21T01:53:08;9.90;1.00
3566;DHT22;1797;51.844;7.684;2023-04-21T01:55:33;10.00;1.00
3566;DHT22;1797;51.844;7.684;2023-04-21T01:57:59;9.90;1.00
3566;DHT22;1797;51.844;7.684;2023-04-21T02:00:25;9.80;1.00
3566;DHT22;1797;51.844;7.684;2023-04-21T02:02:51;9.80;1.00
3566;DHT22;1797;51.844;7.684;2023-04-21T02:05:17;9.90;1.00
3566;DHT22;1797;51.844;7.684;2023-04-21T02:07:43;9.90;1.00
3566;DHT22;1797;51.844;7.684;2023-04-21T02:10:09;9.90;1.00
3566;DHT22;1797;51.844;7.684;2023-04-21T02:12:35;9.90;1.00
3566;DHT22;1797;51.844;7.684;2023-04-21T02:15:01;9.80;1.00
3566;DHT22;1797;51.844;7.684;2023-04-21T02:17:27;9.80;1.00
3566;DHT22;1797;51.844;7.684;2023-04-21T02:19:52;9.80;1.00
3566;DHT22;1797;51.844;7.684;2023-04-21T02:22:18;9.70;7.60
3566;DHT22;1797;51.844;7.684;2023-04-21T02:24:43;9.90;1.00
3566;DHT22;1797;51.844;7.684;2023-04-21T02:27:09;9.80;1.00
3566;DHT22;1797;51.844;7.684;2023-04-21T02:29:35;9.90;1.00
3566;DHT22;1797;51.844;7.684;2023-04-21T02:32:00;9.80;47.60
3566;DHT22;1797;51.844;7.684;2023-04-21T02:34:26;9.80;80.30
3566;DHT22;1797;51.844;7.684;2023-04-21T02:36:51;9.80;99.90
3566;DHT22;1797;51.844;7.684;2023-04-21T02:39:17;9.80;99.90
3566;DHT22;1797;51.844;7.684;2023-04-21T02:41:42;9.80;99.90
3566;DHT22;1797;51.844;7.684;2023-04-21T02:44:08;9.80;99.90
3566;DHT22;1797;51.844;7.684;2023-04-21T02:46:33;9.80;99.90
3566;DHT22;1797;51.844;7.684;2023-04-21T02:48:59;9.80;99.90
3566;DHT22;1797;51.844;7.684;2023-04-21T02:51:24;9.80;99.90
3566;DHT22;1797;51.844;7.684;2023-04-21T02:53:51;9.80;99.90
3566;DHT22;1797;51.844;7.684;2023-04-21T02:56:17;9.80;99.90
3566;DHT22;1797;51.844;7.684;2023-04-21T02:58:43;9.80;99.90
3566;DHT22;1797;51.844;7.684;2023-04-21T03:01:08;9.80;99.90
3566;DHT22;1797;51.844;7.684;2023-04-21T03:03:34;9.90;99.90
3566;DHT22;1797;51.844;7.684;2023-04-21T03:06:02;9.80;99.90
3566;DHT22;1797;51.844;7.684;2023-04-21T03:08:28;9.80;99.90
3566;DHT22;1797;51.844;7.684;2023-04-21T03:10:55;9.90;1.00
3566;DHT22;1797;51.844;7.684;2023-04-21T03:13:21;9.90;1.00
3566;DHT22;1797;51.844;7.684;2023-04-21T03:15:48;9.90;1.00
3566;DHT22;1797;51.844;7.684;2023-04-21T03:18:14;9.90;1.00
3566;DHT22;1797;51.844;7.684;2023-04-21T03:20:40;9.90;1.00
3566;DHT22;1797;51.844;7.684;2023-04-21T03:23:06;10.00;1.00
3566;DHT22;1797;51.844;7.684;2023-04-21T03:25:31;10.00;1.00
3566;DHT22;1797;51.844;7.684;2023-04-21T03:27:57;10.00;1.00
3566;DHT22;1797;51.844;7.684;2023-04-21T03:30:23;9.90;1.00
3566;DHT22;1797;51.844;7.684;2023-04-21T03:32:50;9.90;1.00
3566;DHT22;1797;51.844;7.684;2023-04-21T03:35:16;10.00;1.00
3566;DHT22;1797;51.844;7.684;2023-04-21T03:37:42;10.00;1.00
3566;DHT22;1797;51.844;7.684;2023-04-21T03:40:08;10.00;1.00
3566;DHT22;1797;51.844;7.684;2023-04-21T03:42:34;10.00;1.00
3566;DHT22;1797;51.844;7.684;2023-04-21T03:45:04;10.00;1.00
3566;DHT22;1797;51.844;7.684;2023-04-21T03:47:30;10.00;1.00
3566;DHT22;1797;51.844;7.684;2023-04-21T03:49:56;10.00;1.00
3566;DHT22;1797;51.844;7.684;2023-04-21T03:52:22;10.00;1.00
3566;DHT22;1797;51.844;7.684;2023-04-21T03:54:47;10.00;1.00
3566;DHT22;1797;51.844;7.684;2023-04-21T03:57:13;10.00;1.00
3566;DHT22;1797;51.844;7.684;2023-04-21T03:59:39;10.00;1.00
3566;DHT22;1797;51.844;7.684;2023-04-21T04:02:05;10.00;1.00
3566;DHT22;1797;51.844;7.684;2023-04-21T04:04:31;10.00;99.90
3566;DHT22;1797;51.844;7.684;2023-04-21T04:06:56;10.00;1.00
3566;DHT22;1797;51.844;7.684;2023-04-21T04:09:22;10.10;99.90
3566;DHT22;1797;51.844;7.684;2023-04-21T04:11:48;10.00;99.90
3566;DHT22;1797;51.844;7.684;2023-04-21T04:14:14;10.00;99.90
3566;DHT22;1797;51.844;7.684;2023-04-21T04:16:39;10.00;1.00
3566;DHT22;1797;51.844;7.684;2023-04-21T04:19:05;9.90;1.00
3566;DHT22;1797;51.844;7.684;2023-04-21T04:21:31;10.00;1.00
3566;DHT22;1797;51.844;7.684;2023-04-21T04:23:57;9.90;1.00
3566;DHT22;1797;51.844;7.684;2023-04-21T04:26:23;10.00;1.00
3566;DHT22;1797;51.844;7.684;2023-04-21T04:28:50;10.00;1.00
3566;DHT22;1797;51.844;7.684;2023-04-21T04:31:15;10.00;1.00
3566;DHT22;1797;51.844;7.684;2023-04-21T04:33:42;9.90;1.00
3566;DHT22;1797;51.844;7.684;2023-04-21T04:36:08;10.00;1.00
3566;DHT22;1797;51.844;7.684;2023-04-21T04:38:34;10.00;1.00
3566;DHT22;1797;51.844;7.684;2023-04-21T04:41:02;10.00;1.00
3566;DHT22;1797;51.844;7.684;2023-04-21T04:43:27;10.00;99.90
3566;DHT22;1797;51.844;7.684;2023-04-21T04:45:53;10.10;99.90
3566;DHT22;1797;51.844;7.684;2023-04-21T04:48:19;10.10;99.90
3566;DHT22;1797;51.844;7.684;2023-04-21T04:50:45;10.20;99.90
3566;DHT22;1797;51.844;7.684;2023-04-21T04:53:10;10.20;99.90
3566;DHT22;1797;51.844;7.684;2023-04-21T04:55:36;10.20;99.90
3566;DHT22;1797;51.844;7.684;2023-04-21T04:58:02;9.90;51.90
3566;DHT22;1797;51.844;7.684;2023-04-21T05:00:28;10.30;1.00
3566;DHT22;1797;51.844;7.684;2023-04-21T05:02:53;10.30;1.00
3566;DHT22;1797;51.844;7.684;2023-04-21T05:05:19;10.30;1.00
3566;DHT22;1797;51.844;7.684;2023-04-21T05:07:46;10.30;1.00
3566;DHT22;1797;51.844;7.684;2023-04-21T05:10:12;10.30;1.00
3566;DHT22;1797;51.844;7.684;2023-04-21T05:12:37;10.30;37.20
3566;DHT22;1797;51.844;7.684;2023-04-21T05:15:06;10.20;99.90
3566;DHT22;1797;51.844;7.684;2023-04-21T05:17:32;10.10;99.90
3566;DHT22;1797;51.844;7.684;2023-04-21T05:19:58;10.00;1.00
3566;DHT22;1797;51.844;7.684;2023-04-21T05:22:24;10.20;99.90
3566;DHT22;1797;51.844;7.684;2023-04-21T05:24:51;10.10;1.00
3566;DHT22;1797;51.844;7.684;2023-04-21T05:27:16;10.20;1.00
3566;DHT22;1797;51.844;7.684;2023-04-21T05:29:42;10.20;1.00
3566;DHT22;1797;51.844;7.684;2023-04-21T05:32:08;10.20;1.00
3566;DHT22;1797;51.844;7.684;2023-04-21T05:34:33;10.20;1.00
3566;DHT22;1797;51.844;7.684;2023-04-21T05:36:59;10.30;1.00
3566;DHT22;1797;51.844;7.684;2023-04-21T05:39:26;10.30;99.90
3566;DHT22;1797;51.844;7.684;2023-04-21T05:41:52;10.40;99.90
3566;DHT22;1797;51.844;7.684;2023-04-21T05:44:18;10.40;99.90
3566;DHT22;1797;51.844;7.684;2023-04-21T05:46:43;10.50;99.90
3566;DHT22;1797;51.844;7.684;2023-04-21T05:49:09;10.40;31.60
3566;DHT22;1797;51.844;7.684;2023-04-21T05:51:34;10.40;26.50
3566;DHT22;1797;51.844;7.684;2023-04-21T05:54:00;10.40;16.10
3566;DHT22;1797;51.844;7.684;2023-04-21T05:56:26;10.50;12.40
3566;DHT22;1797;51.844;7.684;2023-04-21T05:58:51;10.50;1.00
3566;DHT22;1797;51.844;7.684;2023-04-21T06:01:17;10.60;1.00
3566;DHT22;1797;51.844;7.684;2023-04-21T06:03:43;10.60;1.00
3566;DHT22;1797;51.844;7.684;2023-04-21T06:06:08;10.60;1.00
3566;DHT22;1797;51.844;7.684;2023-04-21T06:08:35;10.60;1.00
3566;DHT22;1797;51.844;7.684;2023-04-21T06:11:01;10.70;1.00
3566;DHT22;1797;51.844;7.684;2023-04-21T06:13:27;10.70;1.00
3566;DHT22;1797;51.844;7.684;2023-04-21T06:15:55;10.80;1.00
3566;DHT22;1797;51.844;7.684;2023-04-21T06:18:21;10.60;1.00
3566;DHT22;1797;51.844;7.684;2023-04-21T06:20:50;10.70;1.00
3566;DHT22;1797;51.844;7.684;2023-04-21T06:23:16;10.70;1.00
3566;DHT22;1797;51.844;7.684;2023-04-21T06:25:42;10.70;1.00
3566;DHT22;1797;51.844;7.684;2023-04-21T06:28:08;10.70;1.00
3566;DHT22;1797;51.844;7.684;2023-04-21T06:30:33;10.80;1.00
3566;DHT22;1797;51.844;7.684;2023-04-21T06:32:59;10.80;99.90
3566;DHT22;1797;51.844;7.684;2023-04-21T06:35:25;10.90;99.90
3566;DHT22;1797;51.844;7.684;2023-04-21T06:37:51;10.90;99.90
3566;DHT22;1797;51.844;7.684;2023-04-21T06:40:16;10.90;99.90
3566;DHT22;1797;51.844;7.684;2023-04-21T06:42:42;10.90;99.90
3566;DHT22;1797;51.844;7.684;2023-04-21T06:45:08;10.90;99.90
3566;DHT22;1797;51.844;7.684;2023-04-21T06:47:34;11.00;99.90
3566;DHT22;1797;51.844;7.684;2023-04-21T06:50:00;11.10;99.90
3566;DHT22;1797;51.844;7.684;2023-04-21T06:52:25;11.20;99.90
3566;DHT22;1797;51.844;7.684;2023-04-21T06:54:51;11.30;99.90
3566;DHT22;1797;51.844;7.684;2023-04-21T06:57:16;11.30;99.90
3566;DHT22;1797;51.844;7.684;2023-04-21T06:59:42;11.50;1.00
3566;DHT22;1797;51.844;7.684;2023-04-21T07:02:08;11.50;1.00
3566;DHT22;1797;51.844;7.684;2023-04-21T07:04:34;11.50;1.00
3566;DHT22;1797;51.844;7.684;2023-04-21T07:07:00;11.60;1.00
3566;DHT22;1797;51.844;7.684;2023-04-21T07:09:25;11.60;1.00
3566;DHT22;1797;51.844;7.684;2023-04-21T07:11:53;11.70;1.00
3566;DHT22;1797;51.844;7.684;2023-04-21T07:14:19;11.70;1.00
3566;DHT22;1797;51.844;7.684;2023-04-21T07:16:45;11.80;1.00
3566;DHT22;1797;51.844;7.684;2023-04-21T07:19:10;11.90;1.00
3566;DHT22;1797;51.844;7.684;2023-04-21T07:21:36;12.00;1.00
3566;DHT22;1797;51.844;7.684;2023-04-21T07:24:02;12.10;1.00
3566;DHT22;1797;51.844;7.684;2023-04-21T07:26:28;12.40;1.00
3566;DHT22;1797;51.844;7.684;2023-04-21T07:28:54;12.60;1.00
3566;DHT22;1797;51.844;7.684;2023-04-21T07:31:23;12.90;99.90
3566;DHT22;1797;51.844;7.684;2023-04-21T07:33:49;13.10;99.90
3566;DHT22;1797;51.844;7.684;2023-04-21T07:36:15;13.30;99.90
3566;DHT22;1797;51.844;7.684;2023-04-21T07:38:41;13.40;99.90
3566;DHT22;1797;51.844;7.684;2023-04-21T07:41:11;13.40;99.90
3566;DHT22;1797;51.844;7.684;2023-04-21T07:43:37;13.50;99.90
3566;DHT22;1797;51.844;7.684;2023-04-21T07:46:03;13.60;99.90
3566;DHT22;1797;51.844;7.684;2023-04-21T07:48:29;13.70;99.90
3566;DHT22;1797;51.844;7.684;2023-04-21T07:50:55;13.70;91.90
3566;DHT22;1797;51.844;7.684;2023-04-21T07:53:22;13.80;80.50
3566;DHT22;1797;51.844;7.684;2023-04-21T07:55:48;13.80;86.10
3566;DHT22;1797;51.844;7.684;2023-04-21T07:58:13;13.90;41.20
3566;DHT22;1797;51.844;7.684;2023-04-21T08:00:39;14.00;1.00
3566;DHT22;1797;51.844;7.684;2023-04-21T08:03:04;14.10;11.30
3566;DHT22;1797;51.844;7.684;2023-04-21T08:05:30;14.60;1.00
3566;DHT22;1797;51.844;7.684;2023-04-21T08:07:56;14.90;1.00
3566;DHT22;1797;51.844;7.684;2023-04-21T08:10:22;15.30;1.00
3566;DHT22;1797;51.844;7.684;2023-04-21T08:12:48;15.50;1.00
3566;DHT22;1797;51.844;7.684;2023-04-21T08:15:13;15.60;1.00
3566;DHT22;1797;51.844;7.684;2023-04-21T08:17:39;15.50;1.00
3566;DHT22;1797;51.844;7.684;2023-04-21T08:20:05;15.30;1.00
3566;DHT22;1797;51.844;7.684;2023-04-21T08:22:31;15.30;1.00
3566;DHT22;1797;51.844;7.684;2023-04-21T08:24:56;15.30;1.00
3566;DHT22;1797;51.844;7.684;2023-04-21T08:27:22;15.40;1.00
3566;DHT22;1797;51.844;7.684;2023-04-21T08:29:48;15.30;1.00
3566;DHT22;1797;51.844;7.684;2023-04-21T08:32:14;15.30;1.00
3566;DHT22;1797;51.844;7.684;2023-04-21T08:34:40;15.20;1.00
3566;DHT22;1797;51.844;7.684;2023-04-21T08:37:07;15.20;1.00
3566;DHT22;1797;51.844;7.684;2023-04-21T08:39:32;15.30;1.00
3566;DHT22;1797;51.844;7.684;2023-04-21T08:41:58;15.40;1.00
3566;DHT22;1797;51.844;7.684;2023-04-21T08:44:25;15.60;1.00
3566;DHT22;1797;51.844;7.684;2023-04-21T08:46:52;15.70;1.00
3566;DHT22;1797;51.844;7.684;2023-04-21T08:49:20;15.70;1.00
3566;DHT22;1797;51.844;7.684;2023-04-21T08:51:46;15.70;1.00
3566;DHT22;1797;51.844;7.684;2023-04-21T08:54:11;15.60;1.00
3566;DHT22;1797;51.844;7.684;2023-04-21T08:56:38;15.60;1.00
3566;DHT22;1797;51.844;7.684;2023-04-21T08:59:05;15.40;1.00
3566;DHT22;1797;51.844;7.684;2023-04-21T09:01:30;15.30;1.00
3566;DHT22;1797;51.844;7.684;2023-04-21T09:04:15;15.10;1.00
3566;DHT22;1797;51.844;7.684;2023-04-21T09:06:41;15.00;1.00
3566;DHT22;1797;51.844;7.684;2023-04-21T09:09:10;15.00;1.00
3566;DHT22;1797;51.844;7.684;2023-04-21T09:11:36;14.90;1.00
3566;DHT22;1797;51.844;7.684;2023-04-21T09:14:01;14.90;1.00
3566;DHT22;1797;51.844;7.684;2023-04-21T09:16:30;15.00;1.00
3566;DHT22;1797;51.844;7.684;2023-04-21T09:18:59;15.00;1.00
3566;DHT22;1797;51.844;7.684;2023-04-21T09:21:27;15.00;1.00
3566;DHT22;1797;51.844;7.684;2023-04-21T09:23:53;15.00;1.00
3566;DHT22;1797;51.844;7.684;2023-04-21T09:26:20;15.00;1.00
3566;DHT22;1797;51.844;7.684;2023-04-21T09:28:50;14.90;1.00
3566;DHT22;1797;51.844;7.684;2023-04-21T09:31:23;15.00;1.00
3566;DHT22;1797;51.844;7.684;2023-04-21T09:33:55;15.10;1.00
3566;DHT22;1797;51.844;7.684;2023-04-21T09:36:23;15.20;1.00
3566;DHT22;1797;51.844;7.684;2023-04-21T09:39:03;15.30;1.00
3566;DHT22;1797;51.844;7.684;2023-04-21T09:41:32;15.50;1.00
3566;DHT22;1797;51.844;7.684;2023-04-21T09:43:58;15.60;1.00
3566;DHT22;1797;51.844;7.684;2023-04-21T09:46:31;15.80;1.00
3566;DHT22;1797;51.844;7.684;2023-04-21T09:48:59;15.80;1.00
3566;DHT22;1797;51.844;7.684;2023-04-21T09:51:26;15.90;1.00
3566;DHT22;1797;51.844;7.684;2023-04-21T09:53:53;15.90;1.00
3566;DHT22;1797;51.844;7.684;2023-04-21T09:56:23;15.80;1.00
3566;DHT22;1797;51.844;7.684;2023-04-21T09:58:53;15.80;1.00
3566;DHT22;1797;51.844;7.684;2023-04-21T10:01:24;15.80;1.00
3566;DHT22;1797;51.844;7.684;2023-04-21T10:03:50;16.00;1.00
3566;DHT22;1797;51.844;7.684;2023-04-21T10:06:17;16.10;1.00
3566;DHT22;1797;51.844;7.684;2023-04-21T10:08:44;16.10;1.00
3566;DHT22;1797;51.844;7.684;2023-04-21T10:11:11;16.40;1.00
3566;DHT22;1797;51.844;7.684;2023-04-21T10:13:40;16.60;1.00
3566;DHT22;1797;51.844;7.684;2023-04-21T10:16:10;16.70;1.00
3566;DHT22;1797;51.844;7.684;2023-04-21T10:18:37;16.90;1.00
3566;DHT22;1797;51.844;7.684;2023-04-21T10:21:17;17.20;1.00
3566;DHT22;1797;51.844;7.684;2023-04-21T10:23:52;17.60;1.00
3566;DHT22;1797;51.844;7.684;2023-04-21T10:26:27;18.10;1.00
3566;DHT22;1797;51.844;7.684;2023-04-21T10:31:32;18.50;1.00
3566;DHT22;1797;51.844;7.684;2023-04-21T10:37:19;18.30;1.00
3566;DHT22;1797;51.844;7.684;2023-04-21T10:44:59;17.90;1.00
3566;DHT22;1797;51.844;7.684;2023-04-21T10:47:47;17.90;1.00
3566;DHT22;1797;51.844;7.684;2023-04-21T10:50:18;17.80;1.00
3566;DHT22;1797;51.844;7.684;2023-04-21T10:52:53;17.60;1.00
3566;DHT22;1797;51.844;7.684;2023-04-21T10:55:19;17.40;1.00
3566;DHT22;1797;51.844;7.684;2023-04-21T10:57:46;17.40;1.00
3566;DHT22;1797;51.844;7.684;2023-04-21T11:00:21;17.30;1.00
3566;DHT22;1797;51.844;7.684;2023-04-21T11:03:01;17.20;1.00
3566;DHT22;1797;51.844;7.684;2023-04-21T11:05:34;17.10;1.00
3566;DHT22;1797;51.844;7.684;2023-04-21T11:08:11;17.00;1.00
3566;DHT22;1797;51.844;7.684;2023-04-21T11:10:54;17.00;1.00
3566;DHT22;1797;51.844;7.684;2023-04-21T11:13:21;17.10;1.00
3566;DHT22;1797;51.844;7.684;2023-04-21T11:16:03;17.20;1.00
3566;DHT22;1797;51.844;7.684;2023-04-21T11:18:47;17.50;1.00
3566;DHT22;1797;51.844;7.684;2023-04-21T11:21:14;17.70;1.00
3566;DHT22;1797;51.844;7.684;2023-04-21T11:23:50;17.80;1.00
3566;DHT22;1797;51.844;7.684;2023-04-21T11:26:16;18.10;1.00
3566;DHT22;1797;51.844;7.684;2023-04-21T11:28:42;18.10;1.00
3566;DHT22;1797;51.844;7.684;2023-04-21T11:31:08;18.10;1.00
3566;DHT22;1797;51.844;7.684;2023-04-21T11:33:37;18.20;1.00
3566;DHT22;1797;51.844;7.684;2023-04-21T11:36:07;18.40;1.00
3566;DHT22;1797;51.844;7.684;2023-04-21T11:38:40;18.40;1.00
3566;DHT22;1797;51.844;7.684;2023-04-21T11:41:06;18.70;1.00
3566;DHT22;1797;51.844;7.684;2023-04-21T11:43:32;18.90;1.00
3566;DHT22;1797;51.844;7.684;2023-04-21T11:46:11;19.00;1.00
3566;DHT22;1797;51.844;7.684;2023-04-21T11:48:37;19.20;1.00
3566;DHT22;1797;51.844;7.684;2023-04-21T11:51:03;19.20;1.00
3566;DHT22;1797;51.844;7.684;2023-04-21T11:53:29;19.30;1.00
3566;DHT22;1797;51.844;7.684;2023-04-21T11:55:55;19.50;1.00
3566;DHT22;1797;51.844;7.684;2023-04-21T11:58:21;19.70;1.00
3566;DHT22;1797;51.844;7.684;2023-04-21T12:00:46;19.80;1.00
3566;DHT22;1797;51.844;7.684;2023-04-21T12:03:12;20.00;1.00
3566;DHT22;1797;51.844;7.684;2023-04-21T12:05:38;20.10;1.00
3566;DHT22;1797;51.844;7.684;2023-04-21T12:08:04;20.00;1.00
3566;DHT22;1797;51.844;7.684;2023-04-21T12:10:31;20.00;1.00
3566;DHT22;1797;51.844;7.684;2023-04-21T12:12:56;20.00;1.00
3566;DHT22;1797;51.844;7.684;2023-04-21T12:15:22;20.20;1.00
3566;DHT22;1797;51.844;7.684;2023-04-21T12:17:50;20.30;1.00
3566;DHT22;1797;51.844;7.684;2023-04-21T12:20:23;20.20;1.00
3566;DHT22;1797;51.844;7.684;2023-04-21T12:22:49;20.40;1.00
3566;DHT22;1797;51.844;7.684;2023-04-21T12:25:15;20.60;1.00
3566;DHT22;1797;51.844;7.684;2023-04-21T12:27:51;20.60;1.00
3566;DHT22;1797;51.844;7.684;2023-04-21T12:30:18;20.60;1.00
3566;DHT22;1797;51.844;7.684;2023-04-21T12:32:43;20.40;1.00
3566;DHT22;1797;51.844;7.684;2023-04-21T12:35:09;20.40;1.00
3566;DHT22;1797;51.844;7.684;2023-04-21T12:37:35;20.30;1.00
3566;DHT22;1797;51.844;7.684;2023-04-21T12:40:01;20.20;1.00
3566;DHT22;1797;51.844;7.684;2023-04-21T12:42:26;20.30;1.00
3566;DHT22;1797;51.844;7.684;2023-04-21T12:44:52;20.40;1.00
3566;DHT22;1797;51.844;7.684;2023-04-21T12:47:17;20.30;1.00
3566;DHT22;1797;51.844;7.684;2023-04-21T12:49:43;20.30;1.00
3566;DHT22;1797;51.844;7.684;2023-04-21T12:52:09;20.10;1.00
3566;DHT22;1797;51.844;7.684;2023-04-21T12:54:34;20.10;1.00
3566;DHT22;1797;51.844;7.684;2023-04-21T12:57:00;20.30;1.00
3566;DHT22;1797;51.844;7.684;2023-04-21T12:59:26;20.30;1.00
3566;DHT22;1797;51.844;7.684;2023-04-21T13:01:52;20.30;1.00
3566;DHT22;1797;51.844;7.684;2023-04-21T13:04:17;20.40;1.00
3566;DHT22;1797;51.844;7.684;2023-04-21T13:06:43;20.50;1.00
3566;DHT22;1797;51.844;7.684;2023-04-21T13:09:08;20.40;1.00
3566;DHT22;1797;51.844;7.684;2023-04-21T13:11:34;20.40;1.00
3566;DHT22;1797;51.844;7.684;2023-04-21T13:14:00;20.40;1.00
3566;DHT22;1797;51.844;7.684;2023-04-21T13:16:25;20.40;1.00
3566;DHT22;1797;51.844;7.684;2023-04-21T13:18:51;20.30;1.00
3566;DHT22;1797;51.844;7.684;2023-04-21T13:21:16;20.30;1.00
3566;DHT22;1797;51.844;7.684;2023-04-21T13:23:42;20.30;1.00
3566;DHT22;1797;51.844;7.684;2023-04-21T13:26:08;20.20;1.00
3566;DHT22;1797;51.844;7.684;2023-04-21T13:28:34;20.00;1.00
3566;DHT22;1797;51.844;7.684;2023-04-21T13:30:59;19.80;1.00
3566;DHT22;1797;51.844;7.684;2023-04-21T13:33:25;19.70;1.00
3566;DHT22;1797;51.844;7.684;2023-04-21T13:35:51;19.60;1.00
3566;DHT22;1797;51.844;7.684;2023-04-21T13:38:17;19.60;1.00
3566;DHT22;1797;51.844;7.684;2023-04-21T13:40:42;19.60;1.00
3566;DHT22;1797;51.844;7.684;2023-04-21T13:43:09;19.50;1.00
3566;DHT22;1797;51.844;7.684;2023-04-21T13:45:35;19.50;1.00
3566;DHT22;1797;51.844;7.684;2023-04-21T13:48:01;19.50;1.00
3566;DHT22;1797;51.844;7.684;2023-04-21T13:50:26;19.50;1.00
3566;DHT22;1797;51.844;7.684;2023-04-21T13:52:52;19.40;1.00
3566;DHT22;1797;51.844;7.684;2023-04-21T13:55:17;19.40;1.00
3566;DHT22;1797;51.844;7.684;2023-04-21T13:57:43;19.30;1.00
3566;DHT22;1797;51.844;7.684;2023-04-21T14:00:09;19.10;1.00
3566;DHT22;1797;51.844;7.684;2023-04-21T14:02:35;19.10;1.00
3566;DHT22;1797;51.844;7.684;2023-04-21T14:05:01;18.90;1.00
3566;DHT22;1797;51.844;7.684;2023-04-21T14:07:28;19.20;1.00
3566;DHT22;1797;51.844;7.684;2023-04-21T14:09:54;19.20;1.00
3566;DHT22;1797;51.844;7.684;2023-04-21T14:12:20;19.20;1.00
3566;DHT22;1797;51.844;7.684;2023-04-21T14:14:45;19.20;1.00
3566;DHT22;1797;51.844;7.684;2023-04-21T14:17:11;19.00;1.00
3566;DHT22;1797;51.844;7.684;2023-04-21T14:19:38;18.90;1.00
3566;DHT22;1797;51.844;7.684;2023-04-21T14:22:03;19.00;1.00
3566;DHT22;1797;51.844;7.684;2023-04-21T14:24:29;19.00;1.00
3566;DHT22;1797;51.844;7.684;2023-04-21T14:26:56;19.00;1.00
3566;DHT22;1797;51.844;7.684;2023-04-21T14:29:22;18.90;1.00
3566;DHT22;1797;51.844;7.684;2023-04-21T14:31:47;18.80;1.00
3566;DHT22;1797;51.844;7.684;2023-04-21T14:34:13;18.70;1.00
3566;DHT22;1797;51.844;7.684;2023-04-21T14:36:39;18.70;1.00
3566;DHT22;1797;51.844;7.684;2023-04-21T14:39:05;18.70;1.00
3566;DHT22;1797;51.844;7.684;2023-04-21T14:41:31;18.80;1.00
3566;DHT22;1797;51.844;7.684;2023-04-21T14:43:57;18.80;1.00
3566;DHT22;1797;51.844;7.684;2023-04-21T14:46:24;18.70;1.00
3566;DHT22;1797;51.844;7.684;2023-04-21T14:48:49;18.60;1.00
3566;DHT22;1797;51.844;7.684;2023-04-21T14:51:16;18.60;1.00
3566;DHT22;1797;51.844;7.684;2023-04-21T14:53:42;18.60;1.00
3566;DHT22;1797;51.844;7.684;2023-04-21T14:56:08;18.50;1.00
3566;DHT22;1797;51.844;7.684;2023-04-21T14:58:34;18.50;1.00
3566;DHT22;1797;51.844;7.684;2023-04-21T15:00:59;18.40;1.00
3566;DHT22;1797;51.844;7.684;2023-04-21T15:03:25;18.30;1.00
3566;DHT22;1797;51.844;7.684;2023-04-21T15:05:51;18.20;1.00
3566;DHT22;1797;51.844;7.684;2023-04-21T15:08:16;18.20;1.00
3566;DHT22;1797;51.844;7.684;2023-04-21T15:10:43;18.20;1.00
3566;DHT22;1797;51.844;7.684;2023-04-21T15:13:10;18.20;1.00
3566;DHT22;1797;51.844;7.684;2023-04-21T15:15:35;18.20;1.00
3566;DHT22;1797;51.844;7.684;2023-04-21T15:18:01;18.10;1.00
3566;DHT22;1797;51.844;7.684;2023-04-21T15:20:27;18.20;1.00
3566;DHT22;1797;51.844;7.684;2023-04-21T15:22:52;18.20;1.00
3566;DHT22;1797;51.844;7.684;2023-04-21T15:25:18;18.20;1.00
3566;DHT22;1797;51.844;7.684;2023-04-21T15:27:44;18.10;1.00
3566;DHT22;1797;51.844;7.684;2023-04-21T15:30:10;18.10;1.00
3566;DHT22;1797;51.844;7.684;2023-04-21T15:32:36;18.10;1.00
3566;DHT22;1797;51.844;7.684;2023-04-21T15:35:02;18.10;1.00
3566;DHT22;1797;51.844;7.684;2023-04-21T15:37:28;18.20;1.00
3566;DHT22;1797;51.844;7.684;2023-04-21T15:39:53;18.30;1.00
3566;DHT22;1797;51.844;7.684;2023-04-21T15:42:19;18.40;1.00
3566;DHT22;1797;51.844;7.684;2023-04-21T15:44:45;18.60;1.00
3566;DHT22;1797;51.844;7.684;2023-04-21T15:47:11;18.70;1.00
3566;DHT22;1797;51.844;7.684;2023-04-21T15:49:37;18.70;1.00
3566;DHT22;1797;51.844;7.684;2023-04-21T15:52:03;18.80;1.00
3566;DHT22;1797;51.844;7.684;2023-04-21T15:54:29;18.90;1.00
3566;DHT22;1797;51.844;7.684;2023-04-21T15:56:55;19.00;1.00
3566;DHT22;1797;51.844;7.684;2023-04-21T15:59:22;19.20;1.00
3566;DHT22;1797;51.844;7.684;2023-04-21T16:01:47;19.30;1.00
3566;DHT22;1797;51.844;7.684;2023-04-21T16:04:13;19.30;1.00
3566;DHT22;1797;51.844;7.684;2023-04-21T16:06:39;19.30;1.00
3566;DHT22;1797;51.844;7.684;2023-04-21T16:09:05;19.30;1.00
3566;DHT22;1797;51.844;7.684;2023-04-21T16:11:30;19.40;1.00
3566;DHT22;1797;51.844;7.684;2023-04-21T16:13:57;19.40;1.00
3566;DHT22;1797;51.844;7.684;2023-04-21T16:16:23;19.50;1.00
3566;DHT22;1797;51.844;7.684;2023-04-21T16:18:48;19.60;1.00
3566;DHT22;1797;51.844;7.684;2023-04-21T16:21:14;19.60;1.00
3566;DHT22;1797;51.844;7.684;2023-04-21T16:23:40;19.70;1.00